sensor_id;sensor_type;location;lat;lon;timestamp;pressure;altitude;pressure_sealevel;temperature;humidity
39177;BME280;24904;52.208;21.192;2023-11-19T00:04:58;101176.34;;;1.38;81.76
39177;BME280;24904;52.208;21.192;2023-11-19T00:10:06;101175.70;;;1.42;82.07
39177;BME280;24904;52.208;21.192;2023-11-19T00:15:14;101175.84;;;1.43;82.18
39177;BME280;24904;52.208;21.192;2023-11-19T00:20:20;101177.70;;;1.48;82.00
39177;BME280;24904;52.208;21.192;2023-11-19T00:44:22;101163.44;;;1.89;81.04
39177;BME280;24904;52.208;21.192;2023-11-19T00:49:27;101143.48;;;1.85;81.04
39177;BME280;24904;52.208;21.192;2023-11-19T00:54:32;101130.20;;;1.76;81.00
39177;BME280;24904;52.208;21.192;2023-11-19T00:59:37;101131.29;;;1.76;81.21
39177;BME280;24904;52.208;21.192;2023-11-19T01:04:42;101129.17;;;1.78;81.41
39177;BME280;24904;52.208;21.192;2023-11-19T01:09:47;101122.45;;;1.73;80.92
39177;BME280;24904;52.208;21.192;2023-11-19T01:14:52;101115.81;;;1.69;81.26
39177;BME280;24904;52.208;21.192;2023-11-19T01:19:57;101099.52;;;1.62;81.26
39177;BME280;24904;52.208;21.192;2023-11-19T01:25:02;101089.93;;;1.63;81.48
39177;BME280;24904;52.208;21.192;2023-11-19T01:30:11;101084.27;;;1.59;81.64
39177;BME280;24904;52.208;21.192;2023-11-19T01:35:17;101077.08;;;1.64;81.64
39177;BME280;24904;52.208;21.192;2023-11-19T01:40:23;101073.66;;;1.62;81.57
39177;BME280;24904;52.208;21.192;2023-11-19T01:45:30;101079.36;;;1.54;81.19
39177;BME280;24904;52.208;21.192;2023-11-19T01:50:36;101084.58;;;1.54;81.43
39177;BME280;24904;52.208;21.192;2023-11-19T01:55:41;101072.77;;;1.53;81.59
39177;BME280;24904;52.208;21.192;2023-11-19T02:00:47;101053.33;;;1.54;81.73
39177;BME280;24904;52.208;21.192;2023-11-19T02:05:52;101043.35;;;1.56;81.80
39177;BME280;24904;52.208;21.192;2023-11-19T02:10:57;101031.23;;;1.55;81.63
39177;BME280;24904;52.208;21.192;2023-11-19T02:16:04;101034.20;;;1.52;81.79
39177;BME280;24904;52.208;21.192;2023-11-19T02:21:10;101030.82;;;1.54;81.92
39177;BME280;24904;52.208;21.192;2023-11-19T02:26:21;101026.14;;;1.55;82.01
39177;BME280;24904;52.208;21.192;2023-11-19T02:31:29;101011.76;;;1.54;81.95
39177;BME280;24904;52.208;21.192;2023-11-19T02:36:34;101013.32;;;1.58;82.10
39177;BME280;24904;52.208;21.192;2023-11-19T02:41:39;101005.18;;;1.57;82.06
39177;BME280;24904;52.208;21.192;2023-11-19T02:46:44;100994.69;;;1.56;81.97
39177;BME280;24904;52.208;21.192;2023-11-19T02:51:51;100991.76;;;1.64;82.32
39177;BME280;24904;52.208;21.192;2023-11-19T02:56:56;100983.77;;;1.69;82.21
39177;BME280;24904;52.208;21.192;2023-11-19T03:02:05;100974.60;;;1.70;82.06
39177;BME280;24904;52.208;21.192;2023-11-19T03:07:10;100965.45;;;1.66;82.01
39177;BME280;24904;52.208;21.192;2023-11-19T03:12:15;100963.10;;;1.65;82.35
39177;BME280;24904;52.208;21.192;2023-11-19T03:17:20;100947.88;;;1.68;82.35
39177;BME280;24904;52.208;21.192;2023-11-19T03:22:27;100946.63;;;1.66;82.15
39177;BME280;24904;52.208;21.192;2023-11-19T03:27:33;100939.63;;;1.67;82.19
39177;BME280;24904;52.208;21.192;2023-11-19T03:32:39;100930.96;;;1.67;82.35
39177;BME280;24904;52.208;21.192;2023-11-19T03:37:44;100917.88;;;1.66;82.36
39177;BME280;24904;52.208;21.192;2023-11-19T03:42:50;100908.88;;;1.64;82.23
39177;BME280;24904;52.208;21.192;2023-11-19T03:47:55;100905.41;;;1.66;82.54
39177;BME280;24904;52.208;21.192;2023-11-19T03:53:00;100906.02;;;1.69;82.22
39177;BME280;24904;52.208;21.192;2023-11-19T03:58:06;100901.44;;;1.71;82.04
39177;BME280;24904;52.208;21.192;2023-11-19T04:03:11;100895.19;;;1.69;82.53
39177;BME280;24904;52.208;21.192;2023-11-19T04:08:16;100881.67;;;1.73;82.59
39177;BME280;24904;52.208;21.192;2023-11-19T04:13:21;100870.81;;;1.72;82.56
39177;BME280;24904;52.208;21.192;2023-11-19T04:18:27;100867.60;;;1.73;82.46
39177;BME280;24904;52.208;21.192;2023-11-19T04:23:32;100858.81;;;1.74;82.64
39177;BME280;24904;52.208;21.192;2023-11-19T04:28:38;100849.05;;;1.76;82.80
39177;BME280;24904;52.208;21.192;2023-11-19T04:33:43;100837.20;;;1.75;82.57
39177;BME280;24904;52.208;21.192;2023-11-19T04:38:48;100831.18;;;1.75;82.73
39177;BME280;24904;52.208;21.192;2023-11-19T04:43:53;100827.21;;;1.77;82.82
39177;BME280;24904;52.208;21.192;2023-11-19T04:48:58;100814.10;;;1.74;82.89
39177;BME280;24904;52.208;21.192;2023-11-19T04:54:03;100805.52;;;1.72;82.96
39177;BME280;24904;52.208;21.192;2023-11-19T04:59:08;100788.90;;;1.72;82.54
39177;BME280;24904;52.208;21.192;2023-11-19T05:04:13;100789.84;;;1.74;82.80
39177;BME280;24904;52.208;21.192;2023-11-19T05:09:18;100782.64;;;1.80;83.04
39177;BME280;24904;52.208;21.192;2023-11-19T05:14:23;100782.25;;;1.80;82.99
39177;BME280;24904;52.208;21.192;2023-11-19T05:19:28;100779.08;;;1.80;82.88
39177;BME280;24904;52.208;21.192;2023-11-19T05:24:34;100763.42;;;1.82;83.24
39177;BME280;24904;52.208;21.192;2023-11-19T05:29:39;100759.70;;;1.84;83.21
39177;BME280;24904;52.208;21.192;2023-11-19T05:34:44;100756.72;;;1.82;83.18
39177;BME280;24904;52.208;21.192;2023-11-19T05:39:49;100756.98;;;1.86;83.15
39177;BME280;24904;52.208;21.192;2023-11-19T05:44:55;100755.15;;;1.87;83.11
39177;BME280;24904;52.208;21.192;2023-11-19T05:50:01;100759.90;;;1.87;83.26
39177;BME280;24904;52.208;21.192;2023-11-19T05:55:08;100761.21;;;1.89;83.12
39177;BME280;24904;52.208;21.192;2023-11-19T06:00:15;100755.02;;;1.90;83.30
39177;BME280;24904;52.208;21.192;2023-11-19T06:05:21;100747.82;;;1.92;83.46
39177;BME280;24904;52.208;21.192;2023-11-19T06:10:27;100747.05;;;1.92;83.28
39177;BME280;24904;52.208;21.192;2023-11-19T06:15:34;100748.68;;;1.94;83.14
39177;BME280;24904;52.208;21.192;2023-11-19T06:20:40;100745.98;;;1.95;83.02
39177;BME280;24904;52.208;21.192;2023-11-19T06:25:45;100736.86;;;1.97;83.20
39177;BME280;24904;52.208;21.192;2023-11-19T06:30:50;100733.63;;;2.03;82.95
39177;BME280;24904;52.208;21.192;2023-11-19T06:35:55;100735.16;;;2.04;82.72
39177;BME280;24904;52.208;21.192;2023-11-19T06:41:00;100730.20;;;2.05;82.80
39177;BME280;24904;52.208;21.192;2023-11-19T06:46:05;100718.63;;;2.05;82.75
39177;BME280;24904;52.208;21.192;2023-11-19T06:51:11;100710.44;;;2.05;82.65
39177;BME280;24904;52.208;21.192;2023-11-19T06:56:24;100699.66;;;2.06;82.52
39177;BME280;24904;52.208;21.192;2023-11-19T07:01:30;100692.92;;;2.08;82.54
39177;BME280;24904;52.208;21.192;2023-11-19T07:06:39;100683.04;;;2.08;82.41
39177;BME280;24904;52.208;21.192;2023-11-19T07:11:45;100678.70;;;2.07;82.25
39177;BME280;24904;52.208;21.192;2023-11-19T07:16:50;100675.42;;;2.06;81.82
39177;BME280;24904;52.208;21.192;2023-11-19T07:21:55;100666.29;;;1.97;81.87
39177;BME280;24904;52.208;21.192;2023-11-19T07:27:01;100664.68;;;1.96;82.04
39177;BME280;24904;52.208;21.192;2023-11-19T07:32:07;100661.63;;;1.95;82.13
39177;BME280;24904;52.208;21.192;2023-11-19T07:37:13;100657.08;;;1.97;82.01
39177;BME280;24904;52.208;21.192;2023-11-19T07:42:18;100649.23;;;1.99;81.72
39177;BME280;24904;52.208;21.192;2023-11-19T07:47:23;100647.27;;;2.00;81.76
39177;BME280;24904;52.208;21.192;2023-11-19T07:52:28;100642.38;;;2.06;81.70
39177;BME280;24904;52.208;21.192;2023-11-19T07:57:33;100636.17;;;2.07;81.52
39177;BME280;24904;52.208;21.192;2023-11-19T08:02:39;100630.13;;;2.10;81.50
39177;BME280;24904;52.208;21.192;2023-11-19T08:07:44;100619.80;;;2.14;81.81
39177;BME280;24904;52.208;21.192;2023-11-19T08:12:49;100614.00;;;2.18;81.50
39177;BME280;24904;52.208;21.192;2023-11-19T08:17:54;100602.70;;;2.19;81.72
39177;BME280;24904;52.208;21.192;2023-11-19T08:23:03;100598.17;;;2.20;81.71
39177;BME280;24904;52.208;21.192;2023-11-19T08:28:08;100596.92;;;2.26;81.55
39177;BME280;24904;52.208;21.192;2023-11-19T08:33:13;100587.76;;;2.28;81.30
39177;BME280;24904;52.208;21.192;2023-11-19T08:38:18;100581.60;;;2.28;81.21
39177;BME280;24904;52.208;21.192;2023-11-19T08:43:24;100573.50;;;2.32;81.37
39177;BME280;24904;52.208;21.192;2023-11-19T08:48:29;100561.27;;;2.36;81.17
39177;BME280;24904;52.208;21.192;2023-11-19T08:53:34;100566.27;;;2.46;81.31
39177;BME280;24904;52.208;21.192;2023-11-19T08:58:39;100553.58;;;2.48;81.30
39177;BME280;24904;52.208;21.192;2023-11-19T09:03:44;100556.19;;;2.47;81.59
39177;BME280;24904;52.208;21.192;2023-11-19T09:08:49;100547.39;;;2.51;81.50
39177;BME280;24904;52.208;21.192;2023-11-19T09:13:54;100540.24;;;2.49;81.54
39177;BME280;24904;52.208;21.192;2023-11-19T09:18:59;100532.66;;;2.48;81.33
39177;BME280;24904;52.208;21.192;2023-11-19T09:24:06;100528.70;;;2.51;81.64
39177;BME280;24904;52.208;21.192;2023-11-19T09:29:12;100526.09;;;2.46;81.36
39177;BME280;24904;52.208;21.192;2023-11-19T09:34:17;100523.00;;;2.46;81.48
39177;BME280;24904;52.208;21.192;2023-11-19T09:39:23;100500.71;;;2.47;81.44
39177;BME280;24904;52.208;21.192;2023-11-19T09:44:29;100490.19;;;2.47;81.70
39177;BME280;24904;52.208;21.192;2023-11-19T09:49:34;100477.72;;;2.50;81.27
39177;BME280;24904;52.208;21.192;2023-11-19T09:54:40;100477.08;;;2.52;81.51
39177;BME280;24904;52.208;21.192;2023-11-19T09:59:46;100465.70;;;2.53;81.44
39177;BME280;24904;52.208;21.192;2023-11-19T10:04:52;100457.11;;;2.52;81.34
39177;BME280;24904;52.208;21.192;2023-11-19T10:09:57;100451.83;;;2.51;81.18
39177;BME280;24904;52.208;21.192;2023-11-19T10:15:04;100445.41;;;2.52;81.45
39177;BME280;24904;52.208;21.192;2023-11-19T10:20:12;100439.34;;;2.47;81.29
39177;BME280;24904;52.208;21.192;2023-11-19T10:25:25;100431.62;;;2.48;81.46
39177;BME280;24904;52.208;21.192;2023-11-19T10:30:31;100423.73;;;2.44;81.39
39177;BME280;24904;52.208;21.192;2023-11-19T10:35:50;100413.77;;;2.43;81.70
39177;BME280;24904;52.208;21.192;2023-11-19T10:40:56;100400.45;;;2.45;81.47
39177;BME280;24904;52.208;21.192;2023-11-19T10:46:14;100393.47;;;2.43;81.38
39177;BME280;24904;52.208;21.192;2023-11-19T10:51:24;100384.38;;;2.41;81.51
39177;BME280;24904;52.208;21.192;2023-11-19T10:56:31;100378.48;;;2.38;81.68
39177;BME280;24904;52.208;21.192;2023-11-19T11:01:42;100368.25;;;2.42;81.78
39177;BME280;24904;52.208;21.192;2023-11-19T11:06:48;100356.11;;;2.40;81.65
39177;BME280;24904;52.208;21.192;2023-11-19T11:11:56;100339.08;;;2.42;81.95
39177;BME280;24904;52.208;21.192;2023-11-19T11:28:59;100296.56;;;2.47;81.90
39177;BME280;24904;52.208;21.192;2023-11-19T11:34:21;100287.25;;;2.49;81.85
39177;BME280;24904;52.208;21.192;2023-11-19T11:39:30;100281.95;;;2.50;81.59
39177;BME280;24904;52.208;21.192;2023-11-19T11:44:59;100270.60;;;2.51;81.84
39177;BME280;24904;52.208;21.192;2023-11-19T11:50:09;100262.73;;;2.48;81.80
39177;BME280;24904;52.208;21.192;2023-11-19T11:55:12;100259.58;;;2.50;81.88
39177;BME280;24904;52.208;21.192;2023-11-19T12:00:22;100247.53;;;2.47;82.03
39177;BME280;24904;52.208;21.192;2023-11-19T12:05:26;100239.31;;;2.47;82.03
39177;BME280;24904;52.208;21.192;2023-11-19T12:10:31;100224.42;;;2.48;82.10
39177;BME280;24904;52.208;21.192;2023-11-19T12:16:10;100215.90;;;2.44;81.88
39177;BME280;24904;52.208;21.192;2023-11-19T12:21:28;100204.45;;;2.42;82.05
39177;BME280;24904;52.208;21.192;2023-11-19T12:26:34;100190.20;;;2.44;82.41
39177;BME280;24904;52.208;21.192;2023-11-19T12:31:38;100186.69;;;2.49;82.06
39177;BME280;24904;52.208;21.192;2023-11-19T12:36:41;100176.73;;;2.50;82.02
39177;BME280;24904;52.208;21.192;2023-11-19T12:41:54;100168.71;;;2.49;82.07
39177;BME280;24904;52.208;21.192;2023-11-19T12:47:01;100161.20;;;2.51;82.39
39177;BME280;24904;52.208;21.192;2023-11-19T12:52:13;100158.58;;;2.49;81.86
39177;BME280;24904;52.208;21.192;2023-11-19T12:57:16;100154.48;;;2.47;81.89
39177;BME280;24904;52.208;21.192;2023-11-19T13:02:21;100147.41;;;2.45;82.15
39177;BME280;24904;52.208;21.192;2023-11-19T13:07:24;100149.33;;;2.44;82.07
39177;BME280;24904;52.208;21.192;2023-11-19T13:12:27;100144.27;;;2.43;82.34
39177;BME280;24904;52.208;21.192;2023-11-19T13:17:30;100136.39;;;2.44;82.01
39177;BME280;24904;52.208;21.192;2023-11-19T13:22:34;100132.02;;;2.45;82.33
39177;BME280;24904;52.208;21.192;2023-11-19T13:27:37;100125.71;;;2.44;82.17
39177;BME280;24904;52.208;21.192;2023-11-19T13:32:40;100111.98;;;2.43;82.04
39177;BME280;24904;52.208;21.192;2023-11-19T13:37:43;100106.52;;;2.40;82.10
39177;BME280;24904;52.208;21.192;2023-11-19T13:42:46;100096.34;;;2.37;82.42
39177;BME280;24904;52.208;21.192;2023-11-19T13:47:49;100078.42;;;2.32;82.00
39177;BME280;24904;52.208;21.192;2023-11-19T13:52:52;100064.29;;;2.25;82.23
39177;BME280;24904;52.208;21.192;2023-11-19T13:57:55;100053.15;;;2.22;82.42
39177;BME280;24904;52.208;21.192;2023-11-19T14:02:58;100042.73;;;2.18;82.48
39177;BME280;24904;52.208;21.192;2023-11-19T14:08:01;100041.71;;;2.18;82.56
39177;BME280;24904;52.208;21.192;2023-11-19T14:28:22;100015.86;;;2.55;82.23
39177;BME280;24904;52.208;21.192;2023-11-19T14:33:27;100007.89;;;2.51;81.66
39177;BME280;24904;52.208;21.192;2023-11-19T14:38:30;100005.69;;;2.43;82.07
39177;BME280;24904;52.208;21.192;2023-11-19T14:43:35;100005.13;;;2.35;82.21
39177;BME280;24904;52.208;21.192;2023-11-19T14:48:38;99999.69;;;2.27;82.21
39177;BME280;24904;52.208;21.192;2023-11-19T14:53:41;99991.83;;;2.23;82.35
39177;BME280;24904;52.208;21.192;2023-11-19T14:58:44;99982.30;;;2.16;82.88
39177;BME280;24904;52.208;21.192;2023-11-19T15:03:47;99981.05;;;2.12;82.83
39177;BME280;24904;52.208;21.192;2023-11-19T15:08:50;99980.19;;;2.14;83.13
39177;BME280;24904;52.208;21.192;2023-11-19T15:13:53;99981.09;;;2.09;83.01
39177;BME280;24904;52.208;21.192;2023-11-19T15:37:07;99969.48;;;2.34;82.74
39177;BME280;24904;52.208;21.192;2023-11-19T15:42:12;99967.29;;;2.29;82.92
39177;BME280;24904;52.208;21.192;2023-11-19T15:47:17;99957.86;;;2.16;82.95
39177;BME280;24904;52.208;21.192;2023-11-19T15:52:22;99958.31;;;2.19;83.53
39177;BME280;24904;52.208;21.192;2023-11-19T15:57:27;99958.61;;;2.20;83.29
39177;BME280;24904;52.208;21.192;2023-11-19T16:02:32;99963.23;;;2.20;83.23
39177;BME280;24904;52.208;21.192;2023-11-19T16:07:38;99960.50;;;2.23;83.23
39177;BME280;24904;52.208;21.192;2023-11-19T16:12:43;99960.52;;;2.24;83.36
39177;BME280;24904;52.208;21.192;2023-11-19T16:17:48;99953.16;;;2.24;83.45
39177;BME280;24904;52.208;21.192;2023-11-19T16:22:53;99952.66;;;2.21;83.30
39177;BME280;24904;52.208;21.192;2023-11-19T16:27:58;99949.02;;;2.18;83.14
39177;BME280;24904;52.208;21.192;2023-11-19T16:33:03;99944.36;;;2.18;83.37
39177;BME280;24904;52.208;21.192;2023-11-19T16:38:09;99947.30;;;2.20;83.16
39177;BME280;24904;52.208;21.192;2023-11-19T16:43:14;99945.39;;;2.21;83.55
39177;BME280;24904;52.208;21.192;2023-11-19T16:48:20;99938.33;;;2.20;83.46
39177;BME280;24904;52.208;21.192;2023-11-19T16:53:25;99930.41;;;2.22;83.62
39177;BME280;24904;52.208;21.192;2023-11-19T16:58:33;99926.27;;;2.25;83.33
39177;BME280;24904;52.208;21.192;2023-11-19T17:03:38;99927.48;;;2.24;83.59
39177;BME280;24904;52.208;21.192;2023-11-19T17:08:43;99917.52;;;2.23;83.62
39177;BME280;24904;52.208;21.192;2023-11-19T17:13:48;99911.94;;;2.20;83.45
39177;BME280;24904;52.208;21.192;2023-11-19T17:18:53;99904.88;;;2.22;83.82
39177;BME280;24904;52.208;21.192;2023-11-19T17:23:58;99902.73;;;2.26;83.53
39177;BME280;24904;52.208;21.192;2023-11-19T17:29:03;99893.98;;;2.28;83.78
39177;BME280;24904;52.208;21.192;2023-11-19T17:34:09;99887.36;;;2.23;83.49
39177;BME280;24904;52.208;21.192;2023-11-19T17:39:14;99878.58;;;2.22;83.61
39177;BME280;24904;52.208;21.192;2023-11-19T17:44:19;99872.33;;;2.23;83.73
39177;BME280;24904;52.208;21.192;2023-11-19T17:49:26;99869.36;;;2.20;84.01
39177;BME280;24904;52.208;21.192;2023-11-19T17:54:31;99867.95;;;2.21;83.58
39177;BME280;24904;52.208;21.192;2023-11-19T17:59:36;99869.64;;;2.19;83.80
39177;BME280;24904;52.208;21.192;2023-11-19T18:04:41;99861.42;;;2.18;83.84
39177;BME280;24904;52.208;21.192;2023-11-19T18:09:50;99856.14;;;2.22;83.89
39177;BME280;24904;52.208;21.192;2023-11-19T18:14:55;99851.72;;;2.22;83.87
39177;BME280;24904;52.208;21.192;2023-11-19T18:20:01;99844.09;;;2.23;83.66
39177;BME280;24904;52.208;21.192;2023-11-19T18:25:08;99837.66;;;2.23;83.69
39177;BME280;24904;52.208;21.192;2023-11-19T18:30:15;99832.80;;;2.21;83.56
39177;BME280;24904;52.208;21.192;2023-11-19T18:35:20;99831.20;;;2.19;83.82
39177;BME280;24904;52.208;21.192;2023-11-19T18:40:27;99829.22;;;2.22;84.00
39177;BME280;24904;52.208;21.192;2023-11-19T18:45:32;99820.45;;;2.24;83.83
39177;BME280;24904;52.208;21.192;2023-11-19T18:50:38;99810.21;;;2.25;83.84
39177;BME280;24904;52.208;21.192;2023-11-19T18:55:43;99805.29;;;2.28;84.22
39177;BME280;24904;52.208;21.192;2023-11-19T19:00:48;99796.45;;;2.30;83.76
39177;BME280;24904;52.208;21.192;2023-11-19T19:05:54;99787.48;;;2.30;83.92
39177;BME280;24904;52.208;21.192;2023-11-19T19:10:59;99781.05;;;2.26;83.78
39177;BME280;24904;52.208;21.192;2023-11-19T19:16:09;99780.95;;;2.32;83.96
39177;BME280;24904;52.208;21.192;2023-11-19T19:21:15;99776.23;;;2.34;83.64
39177;BME280;24904;52.208;21.192;2023-11-19T19:26:21;99769.93;;;2.36;83.77
39177;BME280;24904;52.208;21.192;2023-11-19T19:31:26;99769.69;;;2.35;83.66
39177;BME280;24904;52.208;21.192;2023-11-19T19:36:31;99764.18;;;2.37;83.71
39177;BME280;24904;52.208;21.192;2023-11-19T19:41:37;99766.11;;;2.37;83.86
39177;BME280;24904;52.208;21.192;2023-11-19T19:46:42;99765.27;;;2.35;83.74
39177;BME280;24904;52.208;21.192;2023-11-19T19:51:49;99755.73;;;2.30;83.77
39177;BME280;24904;52.208;21.192;2023-11-19T19:56:54;99754.04;;;2.33;83.77
39177;BME280;24904;52.208;21.192;2023-11-19T20:01:59;99752.20;;;2.35;83.89
39177;BME280;24904;52.208;21.192;2023-11-19T20:07:05;99743.39;;;2.36;84.01
39177;BME280;24904;52.208;21.192;2023-11-19T20:12:11;99734.56;;;2.38;83.99
39177;BME280;24904;52.208;21.192;2023-11-19T20:17:17;99728.64;;;2.39;83.89
39177;BME280;24904;52.208;21.192;2023-11-19T20:22:23;99723.29;;;2.34;83.84
39177;BME280;24904;52.208;21.192;2023-11-19T20:27:28;99717.73;;;2.34;83.63
39177;BME280;24904;52.208;21.192;2023-11-19T20:32:33;99712.91;;;2.34;83.76
39177;BME280;24904;52.208;21.192;2023-11-19T20:37:40;99712.08;;;2.32;84.26
39177;BME280;24904;52.208;21.192;2023-11-19T20:42:45;99702.73;;;2.35;84.00
39177;BME280;24904;52.208;21.192;2023-11-19T20:47:50;99701.17;;;2.37;83.86
39177;BME280;24904;52.208;21.192;2023-11-19T20:52:55;99699.92;;;2.37;83.91
39177;BME280;24904;52.208;21.192;2023-11-19T20:58:00;99699.96;;;2.36;83.64
39177;BME280;24904;52.208;21.192;2023-11-19T21:03:07;99697.63;;;2.35;83.95
39177;BME280;24904;52.208;21.192;2023-11-19T21:08:12;99692.30;;;2.40;83.95
39177;BME280;24904;52.208;21.192;2023-11-19T21:13:17;99682.67;;;2.39;83.98
39177;BME280;24904;52.208;21.192;2023-11-19T21:18:23;99680.88;;;2.37;84.06
39177;BME280;24904;52.208;21.192;2023-11-19T21:23:28;99680.41;;;2.41;83.94
39177;BME280;24904;52.208;21.192;2023-11-19T21:28:33;99685.05;;;2.46;84.06
39177;BME280;24904;52.208;21.192;2023-11-19T21:33:39;99681.11;;;2.44;84.00
39177;BME280;24904;52.208;21.192;2023-11-19T21:38:45;99674.61;;;2.44;84.14
39177;BME280;24904;52.208;21.192;2023-11-19T21:43:50;99672.20;;;2.46;83.97
39177;BME280;24904;52.208;21.192;2023-11-19T21:48:55;99663.98;;;2.43;83.70
39177;BME280;24904;52.208;21.192;2023-11-19T21:54:00;99665.70;;;2.46;84.00
39177;BME280;24904;52.208;21.192;2023-11-19T21:59:06;99658.94;;;2.48;83.98
39177;BME280;24904;52.208;21.192;2023-11-19T22:04:11;99647.74;;;2.46;83.97
39177;BME280;24904;52.208;21.192;2023-11-19T22:09:16;99637.77;;;2.49;83.77
39177;BME280;24904;52.208;21.192;2023-11-19T22:14:21;99632.38;;;2.50;83.85
39177;BME280;24904;52.208;21.192;2023-11-19T22:19:26;99627.23;;;2.46;83.94
39177;BME280;24904;52.208;21.192;2023-11-19T22:24:31;99619.34;;;2.44;83.57
39177;BME280;24904;52.208;21.192;2023-11-19T22:29:36;99615.26;;;2.45;83.57
39177;BME280;24904;52.208;21.192;2023-11-19T22:34:41;99614.77;;;2.39;83.65
39177;BME280;24904;52.208;21.192;2023-11-19T22:39:47;99615.11;;;2.38;83.74
39177;BME280;24904;52.208;21.192;2023-11-19T22:44:56;99613.88;;;2.38;83.68
39177;BME280;24904;52.208;21.192;2023-11-19T22:50:01;99605.33;;;2.37;83.78
39177;BME280;24904;52.208;21.192;2023-11-19T22:55:08;99600.50;;;2.38;83.55
39177;BME280;24904;52.208;21.192;2023-11-19T23:00:16;99596.45;;;2.38;83.82
39177;BME280;24904;52.208;21.192;2023-11-19T23:05:31;99602.45;;;2.39;84.06
39177;BME280;24904;52.208;21.192;2023-11-19T23:10:39;99597.09;;;2.38;84.05
39177;BME280;24904;52.208;21.192;2023-11-19T23:15:44;99588.19;;;2.41;83.85
39177;BME280;24904;52.208;21.192;2023-11-19T23:20:49;99579.67;;;2.35;83.76
39177;BME280;24904;52.208;21.192;2023-11-19T23:25:54;99589.81;;;2.35;83.94
39177;BME280;24904;52.208;21.192;2023-11-19T23:30:59;99599.77;;;2.39;84.29
39177;BME280;24904;52.208;21.192;2023-11-19T23:36:06;99599.08;;;2.42;84.11
39177;BME280;24904;52.208;21.192;2023-11-19T23:41:11;99594.60;;;2.43;84.05
39177;BME280;24904;52.208;21.192;2023-11-19T23:46:16;99589.16;;;2.42;83.91
39177;BME280;24904;52.208;21.192;2023-11-19T23:51:22;99585.98;;;2.41;83.99
39177;BME280;24904;52.208;21.192;2023-11-19T23:56:28;99585.98;;;2.45;84.34
